createdAt,value
2018-05-06T00:01:59.523Z,13.55
2018-05-06T00:04:27.769Z,13.47
2018-05-06T00:06:58.130Z,13.53
2018-05-06T00:09:26.383Z,13.46
2018-05-06T00:11:56.351Z,13.42
2018-05-06T00:14:25.758Z,13.37
2018-05-06T00:16:55.200Z,13.31
2018-05-06T00:19:25.777Z,13.28
2018-05-06T00:21:54.353Z,13.27
2018-05-06T00:24:22.648Z,13.23
2018-05-06T00:26:50.930Z,13.15
2018-05-06T00:29:20.020Z,13.12
2018-05-06T00:31:51.356Z,13.05
2018-05-06T00:34:19.668Z,13.03
2018-05-06T00:36:47.965Z,13.00
2018-05-06T00:39:17.991Z,13.01
2018-05-06T00:41:46.917Z,13.04
2018-05-06T00:44:15.192Z,13.03
2018-05-06T00:46:44.343Z,12.96
2018-05-06T00:49:13.389Z,12.99
2018-05-06T00:51:41.680Z,12.91
2018-05-06T00:54:27.697Z,12.80
2018-05-06T00:56:56.735Z,12.81
2018-05-06T00:59:25.918Z,12.91
2018-05-06T01:01:54.903Z,12.80
2018-05-06T01:04:23.197Z,12.75
2018-05-06T01:06:51.488Z,12.73
2018-05-06T01:09:19.791Z,12.71
2018-05-06T01:11:48.067Z,12.59
2018-05-06T01:14:17.063Z,12.53
2018-05-06T01:16:46.278Z,12.49
2018-05-06T01:19:15.347Z,12.49
2018-05-06T01:21:43.632Z,12.48
2018-05-06T01:24:11.916Z,12.52
2018-05-06T01:26:40.210Z,12.46
2018-05-06T01:29:09.917Z,12.48
2018-05-06T01:31:38.967Z,12.48
2018-05-06T01:34:07.240Z,12.43
2018-05-06T01:36:35.542Z,12.41
2018-05-06T01:39:03.861Z,12.33
2018-05-06T01:41:32.781Z,12.30
2018-05-06T01:44:01.047Z,12.23
2018-05-06T01:46:30.247Z,12.17
2018-05-06T01:48:59.085Z,12.08
2018-05-06T01:51:28.681Z,12.12
2018-05-06T01:53:56.977Z,12.04
2018-05-06T01:56:27.737Z,12.13
2018-05-06T01:58:57.204Z,12.11
2018-05-06T02:01:25.490Z,12.05
2018-05-06T02:03:54.537Z,12.28
2018-05-06T02:06:22.823Z,12.41
2018-05-06T02:08:51.131Z,12.31
2018-05-06T02:11:20.199Z,12.18
2018-05-06T02:13:49.083Z,12.15
2018-05-06T02:16:17.406Z,12.19
2018-05-06T02:18:45.696Z,12.16
2018-05-06T02:21:14.535Z,12.10
2018-05-06T02:23:44.528Z,12.11
2018-05-06T02:26:14.021Z,12.04
2018-05-06T02:28:42.389Z,11.98
2018-05-06T02:31:12.604Z,11.91
2018-05-06T02:33:40.884Z,11.91
2018-05-06T02:36:10.188Z,11.90
2018-05-06T02:38:39.504Z,11.76
2018-05-06T02:41:08.715Z,11.72
2018-05-06T02:43:38.040Z,11.65
2018-05-06T02:46:06.332Z,11.72
2018-05-06T02:48:36.076Z,11.82
2018-05-06T02:51:04.374Z,11.81
2018-05-06T02:53:32.649Z,11.86
2018-05-06T02:56:02.477Z,11.92
2018-05-06T02:58:30.745Z,11.79
2018-05-06T03:00:59.030Z,11.70
2018-05-06T03:03:27.312Z,11.66
2018-05-06T03:05:58.419Z,11.68
2018-05-06T03:08:26.687Z,11.72
2018-05-06T03:10:54.989Z,11.72
2018-05-06T03:13:24.002Z,11.65
2018-05-06T03:15:52.295Z,11.58
2018-05-06T03:18:20.569Z,11.51
2018-05-06T03:20:50.674Z,11.51
2018-05-06T03:23:20.187Z,11.40
2018-05-06T03:25:49.483Z,11.36
2018-05-06T03:28:17.773Z,11.33
2018-05-06T03:30:46.808Z,11.29
2018-05-06T03:33:15.127Z,11.21
2018-05-06T03:35:43.416Z,11.18
2018-05-06T03:38:12.466Z,11.21
2018-05-06T03:40:40.754Z,11.20
2018-05-06T03:43:09.038Z,11.28
2018-05-06T03:45:37.839Z,11.23
2018-05-06T03:48:06.985Z,11.24
2018-05-06T03:50:35.281Z,11.27
2018-05-06T03:53:04.598Z,11.27
2018-05-06T03:55:32.886Z,11.34
2018-05-06T03:58:19.553Z,11.28
2018-05-06T04:00:47.851Z,11.23
2018-05-06T04:03:16.160Z,11.19
2018-05-06T04:05:45.251Z,11.04
2018-05-06T04:08:14.131Z,11.05
2018-05-06T04:10:43.142Z,10.90
2018-05-06T04:13:12.196Z,10.91
2018-05-06T04:15:41.498Z,10.96
2018-05-06T04:18:09.779Z,10.97
2018-05-06T04:20:38.627Z,11.03
2018-05-06T04:23:06.913Z,11.02
2018-05-06T04:25:35.190Z,10.95
2018-05-06T04:28:04.180Z,10.99
2018-05-06T04:30:32.472Z,10.88
2018-05-06T04:33:01.586Z,10.96
2018-05-06T04:35:29.882Z,11.05
2018-05-06T04:37:58.163Z,10.93
2018-05-06T04:40:26.434Z,10.91
2018-05-06T04:42:54.796Z,11.04
2018-05-06T04:45:27.768Z,10.96
2018-05-06T04:47:56.059Z,11.03
2018-05-06T04:50:24.333Z,11.06
2018-05-06T04:52:52.615Z,10.95
2018-05-06T04:55:20.910Z,11.05
2018-05-06T04:57:49.954Z,11.12
2018-05-06T05:00:18.237Z,11.02
2018-05-06T05:02:46.521Z,11.08
2018-05-06T05:05:14.926Z,11.09
2018-05-06T05:07:43.215Z,11.13
2018-05-06T05:10:12.270Z,11.21
2018-05-06T05:12:40.564Z,11.16
2018-05-06T05:15:09.731Z,11.13
2018-05-06T05:17:38.025Z,11.28
2018-05-06T05:20:06.321Z,11.13
2018-05-06T05:22:34.600Z,11.19
2018-05-06T05:25:03.117Z,11.27
2018-05-06T05:27:32.472Z,11.36
2018-05-06T05:30:01.465Z,11.39
2018-05-06T05:32:29.754Z,11.45
2018-05-06T05:34:58.045Z,11.56
2018-05-06T05:37:27.090Z,11.60
2018-05-06T05:39:55.384Z,11.59
2018-05-06T05:42:23.647Z,11.69
2018-05-06T05:44:53.643Z,11.69
2018-05-06T05:47:23.111Z,11.84
2018-05-06T05:49:52.165Z,11.88
2018-05-06T05:52:20.446Z,12.02
2018-05-06T05:54:48.734Z,12.02
2018-05-06T05:57:17.007Z,12.06
2018-05-06T05:59:48.301Z,12.17
2018-05-06T06:02:16.596Z,12.25
2018-05-06T06:04:44.866Z,12.36
2018-05-06T06:07:13.923Z,12.36
2018-05-06T06:09:43.045Z,12.39
2018-05-06T06:12:11.251Z,12.46
2018-05-06T06:14:40.711Z,12.48
2018-05-06T06:17:08.993Z,12.59
2018-05-06T06:19:38.482Z,12.42
2018-05-06T06:22:08.075Z,12.67
2018-05-06T06:24:36.671Z,12.67
2018-05-06T06:27:04.876Z,12.61
2018-05-06T06:29:36.855Z,12.87
2018-05-06T06:32:06.296Z,12.92
2018-05-06T06:34:34.598Z,12.92
2018-05-06T06:37:03.522Z,13.02
2018-05-06T06:39:31.822Z,13.17
2018-05-06T06:42:00.327Z,13.26
2018-05-06T06:44:29.370Z,13.24
2018-05-06T06:46:57.653Z,13.29
2018-05-06T06:49:25.941Z,13.53
2018-05-06T06:51:54.229Z,13.57
2018-05-06T06:54:22.506Z,13.62
2018-05-06T06:56:50.822Z,13.70
2018-05-06T06:59:19.875Z,13.71
2018-05-06T07:01:48.164Z,13.77
2018-05-06T07:04:16.449Z,13.70
2018-05-06T07:06:46.863Z,13.76
2018-05-06T07:09:15.161Z,14.05
2018-05-06T07:11:45.233Z,14.13
2018-05-06T07:14:14.216Z,14.22
2018-05-06T07:16:42.503Z,14.15
2018-05-06T07:19:11.791Z,14.34
2018-05-06T07:21:40.034Z,14.40
2018-05-06T07:24:08.325Z,14.35
2018-05-06T07:26:37.155Z,14.41
2018-05-06T07:29:05.453Z,14.49
2018-05-06T07:31:34.912Z,14.68
2018-05-06T07:34:03.193Z,14.60
2018-05-06T07:36:31.468Z,14.78
2018-05-06T07:39:00.307Z,14.76
2018-05-06T07:41:29.369Z,14.98
2018-05-06T07:43:57.662Z,15.09
2018-05-06T07:46:26.171Z,15.00
2018-05-06T07:48:55.258Z,15.40
2018-05-06T07:51:24.576Z,15.29
2018-05-06T07:53:52.858Z,15.35
2018-05-06T07:56:22.107Z,15.35
2018-05-06T07:58:51.241Z,15.67
2018-05-06T08:01:21.015Z,15.64
2018-05-06T08:03:49.287Z,15.74
2018-05-06T08:06:19.213Z,15.62
2018-05-06T08:08:48.220Z,15.91
2018-05-06T08:11:17.275Z,16.06
2018-05-06T08:13:45.570Z,15.96
2018-05-06T08:16:14.536Z,16.05
2018-05-06T08:18:44.039Z,16.17
2018-05-06T08:21:13.118Z,16.37
2018-05-06T08:23:44.972Z,16.25
2018-05-06T08:26:13.264Z,16.36
2018-05-06T08:28:43.054Z,16.51
2018-05-06T08:31:12.534Z,16.81
2018-05-06T08:33:40.937Z,16.86
2018-05-06T08:36:10.962Z,16.97
2018-05-06T08:38:39.249Z,16.78
2018-05-06T08:41:08.887Z,17.04
2018-05-06T08:43:37.168Z,16.98
2018-05-06T08:46:05.449Z,17.17
2018-05-06T08:48:35.623Z,17.03
2018-05-06T08:51:03.927Z,17.22
2018-05-06T08:53:33.001Z,17.26
2018-05-06T08:56:01.305Z,17.59
2018-05-06T08:58:29.588Z,17.55
2018-05-06T09:00:57.882Z,17.70
2018-05-06T09:03:26.957Z,17.92
2018-05-06T09:05:55.257Z,18.14
2018-05-06T09:08:25.336Z,18.37
2018-05-06T09:10:53.636Z,18.59
2018-05-06T09:13:22.647Z,18.17
2018-05-06T09:15:51.716Z,18.43
2018-05-06T09:18:20.006Z,18.41
2018-05-06T09:20:48.264Z,18.61
2018-05-06T09:23:17.550Z,18.84
2018-05-06T09:25:46.671Z,19.04
2018-05-06T09:28:16.002Z,19.44
2018-05-06T09:30:45.686Z,19.31
2018-05-06T09:33:13.987Z,18.73
2018-05-06T09:35:43.029Z,18.71
2018-05-06T09:38:12.564Z,19.02
2018-05-06T09:40:41.850Z,19.34
2018-05-06T09:43:10.139Z,19.43
2018-05-06T09:45:38.407Z,18.95
2018-05-06T09:48:08.714Z,19.28
2018-05-06T09:50:36.985Z,19.22
2018-05-06T09:53:05.259Z,19.55
2018-05-06T09:55:33.523Z,19.66
2018-05-06T09:58:01.816Z,19.78
2018-05-06T10:00:30.083Z,19.81
2018-05-06T10:02:58.445Z,20.20
2018-05-06T10:05:26.693Z,19.68
2018-05-06T10:07:56.411Z,19.93
2018-05-06T10:10:25.528Z,20.12
2018-05-06T10:12:54.412Z,20.20
2018-05-06T10:15:23.895Z,20.10
2018-05-06T10:17:52.906Z,19.89
2018-05-06T10:20:22.314Z,20.03
2018-05-06T10:22:50.556Z,20.32
2018-05-06T10:25:19.578Z,20.23
2018-05-06T10:27:47.824Z,19.95
2018-05-06T10:30:16.842Z,20.03
2018-05-06T10:32:45.090Z,20.20
2018-05-06T10:35:14.109Z,20.73
2018-05-06T10:37:42.358Z,20.56
2018-05-06T10:40:11.487Z,20.60
2018-05-06T10:42:39.725Z,20.99
2018-05-06T10:45:08.744Z,21.05
2018-05-06T10:47:36.987Z,21.59
2018-05-06T10:50:05.235Z,21.38
2018-05-06T10:52:33.485Z,21.52
2018-05-06T10:55:01.732Z,21.30
2018-05-06T10:57:29.986Z,20.85
2018-05-06T10:59:58.244Z,21.29
2018-05-06T11:02:27.348Z,22.16
2018-05-06T11:04:56.622Z,22.03
2018-05-06T11:07:24.876Z,22.17
2018-05-06T11:09:54.182Z,22.65
2018-05-06T11:12:23.366Z,22.69
2018-05-06T11:14:51.622Z,22.79
2018-05-06T11:17:20.688Z,23.24
2018-05-06T11:19:48.885Z,23.60
2018-05-06T11:22:17.902Z,23.48
2018-05-06T11:24:46.955Z,23.83
2018-05-06T11:27:19.160Z,23.65
2018-05-06T11:29:48.255Z,24.12
2018-05-06T11:32:16.492Z,24.52
2018-05-06T11:34:44.731Z,24.04
2018-05-06T11:37:13.011Z,24.01
2018-05-06T11:39:41.253Z,24.01
2018-05-06T11:42:09.496Z,23.81
2018-05-06T11:44:37.750Z,23.58
2018-05-06T11:47:06.620Z,23.89
2018-05-06T11:49:34.873Z,24.67
2018-05-06T11:52:03.128Z,25.22
2018-05-06T11:54:32.153Z,26.14
2018-05-06T11:57:00.410Z,26.25
2018-05-06T11:59:29.421Z,26.14
2018-05-06T12:01:57.677Z,25.52
2018-05-06T12:04:27.222Z,25.72
2018-05-06T12:06:55.476Z,25.67
2018-05-06T12:09:23.724Z,25.57
2018-05-06T12:11:52.757Z,25.97
2018-05-06T12:14:21.006Z,25.82
2018-05-06T12:16:50.793Z,25.82
2018-05-06T12:19:19.034Z,25.90
2018-05-06T12:21:47.288Z,25.99
2018-05-06T12:24:15.698Z,25.66
2018-05-06T12:29:19.739Z,25.81
2018-05-06T12:31:49.867Z,26.29
2018-05-06T12:34:18.108Z,26.36
2018-05-06T12:36:47.695Z,27.34
2018-05-06T12:39:15.950Z,27.44
2018-05-06T12:41:44.197Z,26.48
2018-05-06T12:44:12.449Z,26.55
2018-05-06T12:46:41.332Z,26.63
2018-05-06T12:49:09.577Z,27.45
2018-05-06T12:51:37.831Z,27.30
2018-05-06T12:54:07.108Z,26.81
2018-05-06T12:56:35.349Z,25.62
2018-05-06T12:59:03.592Z,27.33
2018-05-06T13:01:32.726Z,26.93
2018-05-06T13:04:00.974Z,27.43
2018-05-06T13:06:30.391Z,27.84
2018-05-06T13:08:59.380Z,27.67
2018-05-06T13:11:27.750Z,28.08
2018-05-06T13:13:56.758Z,28.18
2018-05-06T13:16:25.000Z,28.31
2018-05-06T13:18:54.022Z,28.03
2018-05-06T13:21:22.284Z,27.94
2018-05-06T13:23:50.542Z,28.13
2018-05-06T13:26:19.645Z,27.78
2018-05-06T13:28:47.897Z,27.80
2018-05-06T13:31:16.946Z,28.33
2018-05-06T13:33:45.181Z,28.78
2018-05-06T13:36:15.914Z,28.14
2018-05-06T13:38:44.929Z,27.88
2018-05-06T13:41:13.182Z,28.10
2018-05-06T13:43:43.653Z,28.09
2018-05-06T13:46:11.903Z,27.50
2018-05-06T13:48:40.161Z,28.12
2018-05-06T13:51:09.176Z,28.33
2018-05-06T13:53:37.432Z,28.48
2018-05-06T13:56:06.444Z,28.27
2018-05-06T13:58:36.602Z,27.29
2018-05-06T14:01:04.857Z,27.07
2018-05-06T14:03:33.113Z,27.58
2018-05-06T14:06:01.357Z,29.78
2018-05-06T14:08:31.508Z,29.14
2018-05-06T14:11:00.853Z,29.59
2018-05-06T14:13:29.097Z,29.03
2018-05-06T14:15:57.455Z,29.33
2018-05-06T14:18:25.692Z,29.06
2018-05-06T14:20:55.148Z,29.98
2018-05-06T14:23:24.386Z,29.18
2018-05-06T14:25:52.718Z,28.86
2018-05-06T14:28:22.481Z,29.34
2018-05-06T14:30:50.734Z,29.36
2018-05-06T14:33:18.978Z,29.06
2018-05-06T14:35:49.495Z,28.77
2018-05-06T14:38:17.749Z,29.26
2018-05-06T14:40:48.488Z,29.14
2018-05-06T14:43:17.504Z,29.88
2018-05-06T14:45:45.745Z,28.71
2018-05-06T14:48:17.186Z,28.68
2018-05-06T14:50:45.428Z,29.01
2018-05-06T14:53:13.687Z,28.45
2018-05-06T14:55:41.925Z,29.71
2018-05-06T14:58:10.940Z,29.39
2018-05-06T15:00:39.178Z,30.11
2018-05-06T15:03:07.495Z,28.98
2018-05-06T15:05:35.742Z,30.31
2018-05-06T15:08:03.995Z,29.59
2018-05-06T15:10:33.344Z,30.09
2018-05-06T15:13:01.493Z,28.56
2018-05-06T15:15:29.848Z,29.51
2018-05-06T15:17:58.102Z,28.95
2018-05-06T15:20:26.350Z,29.64
2018-05-06T15:22:55.353Z,29.16
2018-05-06T15:25:24.335Z,29.55
2018-05-06T15:27:52.743Z,29.86
2018-05-06T15:30:20.998Z,29.30
2018-05-06T15:32:49.959Z,29.71
2018-05-06T15:35:18.968Z,29.18
2018-05-06T15:37:48.095Z,29.66
2018-05-06T15:40:16.343Z,30.10
2018-05-06T15:42:44.607Z,30.30
2018-05-06T15:45:14.285Z,29.54
2018-05-06T15:47:42.532Z,28.77
2018-05-06T15:50:10.934Z,28.72
2018-05-06T15:52:39.700Z,28.90
2018-05-06T15:55:07.945Z,28.72
2018-05-06T15:57:36.201Z,29.19
2018-05-06T16:00:05.285Z,28.60
2018-05-06T16:05:42.832Z,28.46
2018-05-06T16:08:11.081Z,27.49
2018-05-06T16:10:40.096Z,29.03
2018-05-06T16:13:08.353Z,27.60
2018-05-06T16:15:37.382Z,28.77
2018-05-06T16:18:07.185Z,28.15
2018-05-06T16:20:35.436Z,28.60
2018-05-06T16:23:04.447Z,28.08
2018-05-06T16:25:32.701Z,28.25
2018-05-06T16:28:02.374Z,28.48
2018-05-06T16:30:32.402Z,28.13
2018-05-06T16:33:00.647Z,27.78
2018-05-06T16:35:28.911Z,27.94
2018-05-06T16:37:57.179Z,28.74
2018-05-06T16:40:26.186Z,28.77
2018-05-06T16:42:55.588Z,27.98
2018-05-06T16:45:23.839Z,27.51
2018-05-06T16:47:52.076Z,28.43
2018-05-06T16:50:21.043Z,28.40
2018-05-06T16:52:49.299Z,28.12
2018-05-06T16:55:18.579Z,28.15
2018-05-06T16:57:47.592Z,27.35
2018-05-06T17:00:15.846Z,27.73
2018-05-06T17:02:44.874Z,28.60
2018-05-06T17:05:13.112Z,27.37
2018-05-06T17:07:41.903Z,27.25
2018-05-06T17:10:12.008Z,27.44
2018-05-06T17:12:40.254Z,27.05
2018-05-06T17:15:08.512Z,25.92
2018-05-06T17:17:37.300Z,25.54
2018-05-06T17:20:12.769Z,26.17
2018-05-06T17:22:42.525Z,25.88
2018-05-06T17:25:10.765Z,25.96
2018-05-06T17:27:39.027Z,26.20
2018-05-06T17:32:48.252Z,23.36
2018-05-06T17:35:16.508Z,22.82
2018-05-06T17:37:44.893Z,22.78
2018-05-06T17:40:13.705Z,22.57
2018-05-06T17:42:42.986Z,22.39
2018-05-06T17:45:11.966Z,22.07
2018-05-06T17:47:40.215Z,22.05
2018-05-06T17:50:09.243Z,22.03
2018-05-06T17:52:37.480Z,21.86
2018-05-06T17:55:07.572Z,21.71
2018-05-06T17:57:35.825Z,21.65
2018-05-06T18:00:04.077Z,21.45
2018-05-06T18:02:32.338Z,21.26
2018-05-06T18:05:01.449Z,21.11
2018-05-06T18:07:30.770Z,21.04
2018-05-06T18:09:58.989Z,21.04
2018-05-06T18:12:27.999Z,20.86
2018-05-06T18:14:57.020Z,20.82
2018-05-06T18:17:25.261Z,20.80
2018-05-06T18:19:54.284Z,20.76
2018-05-06T18:22:22.523Z,20.61
2018-05-06T18:24:51.545Z,20.42
2018-05-06T18:27:19.880Z,20.39
2018-05-06T18:29:49.021Z,20.26
2018-05-06T18:32:21.841Z,20.25
2018-05-06T18:34:50.010Z,20.23
2018-05-06T18:37:18.265Z,20.08
2018-05-06T18:39:46.510Z,19.98
2018-05-06T18:42:15.563Z,19.97
2018-05-06T18:44:43.806Z,20.03
2018-05-06T18:47:12.054Z,19.94
2018-05-06T18:49:41.069Z,19.81
2018-05-06T18:52:09.314Z,19.67
2018-05-06T18:54:38.329Z,19.59
2018-05-06T18:57:10.127Z,19.52
2018-05-06T18:59:39.155Z,19.46
2018-05-06T19:02:07.434Z,19.39
2018-05-06T19:04:35.713Z,19.35
2018-05-06T19:07:04.717Z,19.29
2018-05-06T19:09:34.066Z,19.23
2018-05-06T19:12:02.309Z,19.22
2018-05-06T19:14:30.562Z,19.11
2018-05-06T19:17:02.157Z,19.09
2018-05-06T19:19:31.145Z,18.98
2018-05-06T19:22:00.018Z,18.90
2018-05-06T19:24:28.266Z,18.88
2018-05-06T19:26:57.283Z,18.87
2018-05-06T19:29:25.561Z,18.74
2018-05-06T19:31:55.380Z,18.66
2018-05-06T19:34:24.251Z,18.60
2018-05-06T19:36:53.265Z,18.45
2018-05-06T19:39:21.516Z,18.40
2018-05-06T19:41:50.533Z,18.36
2018-05-06T19:44:18.785Z,18.19
2018-05-06T19:46:47.841Z,18.18
2018-05-06T19:49:16.130Z,18.11
2018-05-06T19:51:44.377Z,18.06
2018-05-06T19:54:13.552Z,18.06
2018-05-06T19:56:41.805Z,17.99
2018-05-06T19:59:10.826Z,17.86
2018-05-06T20:01:41.303Z,17.80
2018-05-06T20:04:09.556Z,17.78
2018-05-06T20:06:37.805Z,17.68
2018-05-06T20:09:06.058Z,17.60
2018-05-06T20:11:35.082Z,17.55
2018-05-06T20:14:03.327Z,17.51
2018-05-06T20:16:31.613Z,17.42
2018-05-06T20:18:59.894Z,17.38
2018-05-06T20:21:28.923Z,17.37
2018-05-06T20:23:57.781Z,17.27
2018-05-06T20:26:26.057Z,17.25
2018-05-06T20:28:57.105Z,17.09
2018-05-06T20:31:25.413Z,17.06
2018-05-06T20:33:53.611Z,17.00
2018-05-06T20:36:22.638Z,16.94
2018-05-06T20:38:50.889Z,16.88
2018-05-06T20:41:20.001Z,16.77
2018-05-06T20:43:48.375Z,16.69
2018-05-06T20:46:19.267Z,16.70
2018-05-06T20:48:47.505Z,16.63
2018-05-06T20:51:15.766Z,16.53
2018-05-06T20:53:44.023Z,16.54
2018-05-06T20:56:13.036Z,16.51
2018-05-06T20:58:41.296Z,16.46
2018-05-06T21:01:10.314Z,16.36
2018-05-06T21:03:39.256Z,16.30
2018-05-06T21:06:08.336Z,16.24
2018-05-06T21:08:36.590Z,16.11
2018-05-06T21:11:04.843Z,16.11
2018-05-06T21:13:33.119Z,16.04
2018-05-06T21:16:02.112Z,15.97
2018-05-06T21:18:32.143Z,15.94
2018-05-06T21:21:02.167Z,15.85
2018-05-06T21:23:30.428Z,15.75
2018-05-06T21:25:58.672Z,15.74
2018-05-06T21:28:27.771Z,15.73
2018-05-06T21:30:55.940Z,15.75
2018-05-06T21:33:24.959Z,15.67
2018-05-06T21:35:53.227Z,15.54
2018-05-06T21:38:21.494Z,15.46
2018-05-06T21:40:50.594Z,15.39
2018-05-06T21:43:19.048Z,15.36
2018-05-06T21:45:48.141Z,15.28
2018-05-06T21:48:17.308Z,15.27
2018-05-06T21:50:45.563Z,15.18
2018-05-06T21:53:14.853Z,15.11
2018-05-06T21:55:43.097Z,15.11
2018-05-06T21:58:12.137Z,15.00
2018-05-06T22:00:40.929Z,14.95
2018-05-06T22:03:10.019Z,14.87
2018-05-06T22:05:39.829Z,14.85
2018-05-06T22:08:08.211Z,14.75
2018-05-06T22:10:36.497Z,14.76
2018-05-06T22:13:04.862Z,14.72
2018-05-06T22:15:33.105Z,14.72
2018-05-06T22:18:02.135Z,14.63
2018-05-06T22:20:30.605Z,14.58
2018-05-06T22:22:58.862Z,14.56
2018-05-06T22:25:27.140Z,14.55
2018-05-06T22:27:55.401Z,14.51
2018-05-06T22:30:25.159Z,14.47
2018-05-06T22:32:54.054Z,14.50
2018-05-06T22:35:22.303Z,14.50
2018-05-06T22:37:50.633Z,14.47
2018-05-06T22:40:18.889Z,14.38
2018-05-06T22:42:47.145Z,14.39
2018-05-06T22:45:15.399Z,14.32
2018-05-06T22:47:43.648Z,14.26
2018-05-06T22:50:12.683Z,14.12
2018-05-06T22:52:41.183Z,14.09
2018-05-06T22:55:10.540Z,14.11
2018-05-06T22:57:39.547Z,14.11
2018-05-06T23:00:07.805Z,14.13
2018-05-06T23:02:37.005Z,14.07
2018-05-06T23:05:06.623Z,14.00
2018-05-06T23:07:34.882Z,13.95
2018-05-06T23:10:03.893Z,13.84
2018-05-06T23:12:33.936Z,13.77
2018-05-06T23:15:06.863Z,13.77
2018-05-06T23:17:35.114Z,13.67
2018-05-06T23:20:04.276Z,13.67
2018-05-06T23:22:32.534Z,13.71
2018-05-06T23:25:02.090Z,13.62
2018-05-06T23:27:30.341Z,13.61
2018-05-06T23:29:58.596Z,13.63
2018-05-06T23:32:26.841Z,13.77
2018-05-06T23:34:55.110Z,13.82
2018-05-06T23:37:23.413Z,13.80
2018-05-06T23:39:52.280Z,13.94
2018-05-06T23:42:21.625Z,13.94
2018-05-06T23:44:50.735Z,13.95
2018-05-06T23:47:18.986Z,13.91
2018-05-06T23:49:47.256Z,13.82
2018-05-06T23:52:16.393Z,13.73
2018-05-06T23:54:44.643Z,13.66
2018-05-06T23:57:12.893Z,13.64
2018-05-06T23:59:42.534Z,13.65
